Terminal Aerodrome Forecast
Issued by NWS Bismarck, ND

Home | Current Version | Previous Version | Graphics & Text | Print | Product List | Glossary On
Versions: 1 2 3 4 5 6 7 8 9 10 11 12 13 14 15 16 17 18
000
FTUS43 KBIS 280500
TAFISN
TAF
KISN 280535Z 2806/2906 01020G28KT P6SM VCSH SCT030 BKN050 OVC070
     FM280900 01018G24KT P6SM -SHRA SCT020 BKN030 OVC050
     FM281300 04016KT P6SM -SHRA BKN015 OVC025
     FM282100 06014KT P6SM VCSH BKN025 OVC035
     FM290300 07010KT 5SM BR VCSH BKN015 OVC025=

USA.gov is the U.S. government's official web portal to all federal, state and local government web resources and services.